Indian Springs Air Force Aux, Nevada
Current Conditions -  °F | °C
As of 11:58 PM on Wednesday 28 Jan 2015 (Local Time) from KLSV Reporting Station
Clear Clear  
Wind Chill: 56°   Ceiling: Unl
Heat Index: 56°   Visibility: 10mi
Dew Point: 46°   Wind: 5mph
Humidity: 68%   Direction: 70°ENE
Pressure: 30.18"   Gusts: NA
Location:  36.2388°N, 115.042°W
Report Text: KLSV 290758Z AUTO 07004KT 10SM CLR 14/08 A3018 RMK AO2 SLP212 T01360077 401740071 $
Loading
Personal Weather Stations






























Interactive Weather Map New forecast layout! Learn more

10-Day Weather Forecast

Advertisements
Track Severe Weather on mobile